Time;durP1;ratioP1;P1;durP2;ratioP2;P2;SDS_P1;SDS_P2;PMS_P1;PMS_P2;Temp;Humidity;BMP_temperature;BMP_pressure;BME280_temperature;BME280_humidity;BME280_pressure;Samples;Min_cycle;Max_cycle;Signal;HPM_P1;HPM_P2
2022/05/23 00:00:42;;;;;;;1.98;1.67;;;20.80;54.10;;;;;;5090659;28;20178;-67
2022/05/23 00:03:07;;;;;;;2.83;1.67;;;20.80;54.10;;;;;;5091738;28;20173;-66
2022/05/23 00:05:33;;;;;;;2.08;1.52;;;20.80;54.10;;;;;;5091549;28;20213;-67
2022/05/23 00:07:59;;;;;;;1.98;1.70;;;20.70;54.00;;;;;;5089015;28;20560;-66
2022/05/23 00:10:24;;;;;;;3.35;1.73;;;20.70;54.00;;;;;;5090194;28;20229;-67
2022/05/23 00:12:50;;;;;;;2.30;1.90;;;20.70;54.10;;;;;;5090013;28;20259;-68
2022/05/23 00:15:16;;;;;;;1.67;1.58;;;20.70;54.10;;;;;;5090561;28;20174;-67
2022/05/23 00:17:41;;;;;;;1.90;1.60;;;20.70;54.10;;;;;;5091143;28;20166;-68
2022/05/23 00:20:09;;;;;;;2.05;1.85;;;20.70;54.20;;;;;;5091405;28;20177;-68
2022/05/23 00:22:34;;;;;;;2.78;1.80;;;20.70;54.10;;;;;;5090615;28;20169;-68
2022/05/23 00:25:00;;;;;;;1.67;1.58;;;20.70;54.10;;;;;;5091194;28;20267;-67
2022/05/23 00:27:25;;;;;;;3.45;1.50;;;20.70;54.10;;;;;;5091368;28;20219;-67
2022/05/23 00:29:51;;;;;;;1.40;1.30;;;20.70;54.20;;;;;;5090033;28;20177;-67
2022/05/23 00:35:19;;;;;;;1.70;1.60;;;20.70;54.20;;;;;;5091164;28;20188;-67
2022/05/23 00:37:45;;;;;;;1.85;1.45;;;20.70;54.20;;;;;;5090253;28;20249;-67
2022/05/23 00:40:20;;;;;;;2.08;1.88;;;20.70;54.20;;;;;;5091192;28;20322;-67
2022/05/23 00:45:29;;;;;;;2.33;1.40;;;20.70;54.30;;;;;;5089894;28;20579;-68
2022/05/23 00:47:55;;;;;;;1.65;1.55;;;20.70;54.30;;;;;;5090894;28;20166;-68
2022/05/23 00:50:20;;;;;;;1.70;1.40;;;20.70;54.30;;;;;;5090328;28;20174;-67
2022/05/23 00:52:56;;;;;;;1.70;1.60;;;20.70;54.30;;;;;;5090810;28;20219;-67
2022/05/23 00:55:26;;;;;;;2.17;1.58;;;20.70;54.30;;;;;;5090902;28;20520;-67
2022/05/23 00:58:01;;;;;;;1.48;1.30;;;20.60;54.30;;;;;;5072123;28;20211;-68
2022/05/23 01:00:27;;;;;;;1.83;1.50;;;20.70;54.40;;;;;;5073732;28;20639;-67
2022/05/23 01:02:55;;;;;;;2.05;1.70;;;20.70;54.40;;;;;;5072511;28;20186;-68
2022/05/23 01:05:20;;;;;;;1.30;1.23;;;20.70;54.40;;;;;;5088772;28;20205;-67
2022/05/23 01:07:46;;;;;;;1.60;1.50;;;20.60;54.40;;;;;;5090427;28;20221;-67
2022/05/23 01:10:11;;;;;;;2.83;1.50;;;20.60;54.40;;;;;;5090727;28;20604;-68
2022/05/23 01:12:38;;;;;;;2.78;1.65;;;20.60;54.40;;;;;;5090146;28;20264;-68
2022/05/23 01:15:05;;;;;;;1.52;1.30;;;20.60;54.50;;;;;;5090972;28;20178;-68
2022/05/23 01:17:30;;;;;;;1.30;1.20;;;20.60;54.50;;;;;;5090710;28;20219;-68
2022/05/23 01:19:56;;;;;;;1.83;1.52;;;20.60;54.50;;;;;;5090238;28;20182;-68
2022/05/23 01:22:41;;;;;;;1.30;1.20;;;20.60;54.50;;;;;;5091016;28;20272;-68
2022/05/23 01:25:31;;;;;;;1.17;1.17;;;20.60;54.60;;;;;;5088835;28;20300;-68
2022/05/23 01:27:57;;;;;;;1.58;1.48;;;20.60;54.60;;;;;;5090585;28;20217;-68
2022/05/23 01:30:22;;;;;;;1.48;1.38;;;20.60;54.60;;;;;;5091298;28;20630;-67
2022/05/23 01:32:48;;;;;;;1.60;1.50;;;20.60;54.60;;;;;;5089714;28;20651;-67
2022/05/23 01:35:13;;;;;;;1.65;1.30;;;20.60;54.60;;;;;;5090783;28;20168;-67
2022/05/23 01:37:39;;;;;;;1.48;1.35;;;20.60;54.60;;;;;;5090568;28;20176;-68
2022/05/23 01:40:06;;;;;;;1.50;1.40;;;20.60;54.70;;;;;;5090336;28;20509;-68
2022/05/23 01:42:31;;;;;;;2.05;1.55;;;20.60;54.70;;;;;;5090689;28;20269;-68
2022/05/23 01:44:57;;;;;;;1.65;1.55;;;20.60;54.60;;;;;;5090858;28;20300;-67
2022/05/23 01:47:22;;;;;;;1.50;1.35;;;20.60;54.70;;;;;;5093874;28;20647;-68
2022/05/23 01:49:48;;;;;;;1.67;1.58;;;20.60;54.70;;;;;;5094455;28;20196;-67
2022/05/23 01:52:14;;;;;;;1.38;1.27;;;20.60;54.70;;;;;;5095080;28;20169;-68
2022/05/23 01:54:39;;;;;;;1.83;1.50;;;20.60;54.80;;;;;;5093164;28;20173;-68
2022/05/23 01:57:06;;;;;;;1.40;1.30;;;20.50;54.70;;;;;;5094263;28;20166;-68
2022/05/23 02:02:16;;;;;;;1.77;1.40;;;20.60;54.90;;;;;;5094273;28;20223;-68
2022/05/23 02:04:42;;;;;;;1.20;0.90;;;20.60;54.80;;;;;;5094153;28;20209;-68
2022/05/23 02:07:07;;;;;;;2.08;1.40;;;20.60;54.80;;;;;;5093496;28;20298;-68
2022/05/23 02:09:33;;;;;;;1.40;1.30;;;20.50;54.80;;;;;;5093843;28;20225;-68
2022/05/23 02:11:59;;;;;;;1.27;1.17;;;20.60;54.90;;;;;;5093852;28;20170;-68
2022/05/23 02:14:25;;;;;;;2.00;1.58;;;20.50;54.90;;;;;;5093706;28;20208;-68
2022/05/23 02:16:50;;;;;;;1.40;1.30;;;20.60;54.90;;;;;;5093933;28;20166;-68
2022/05/23 02:19:16;;;;;;;1.27;1.17;;;20.50;54.90;;;;;;5094340;28;20178;-68
2022/05/23 02:21:41;;;;;;;1.70;1.60;;;20.50;55.00;;;;;;5093502;28;20170;-68
2022/05/23 02:24:07;;;;;;;1.42;1.33;;;20.50;54.90;;;;;;5093861;28;20209;-68
2022/05/23 02:26:32;;;;;;;1.17;1.10;;;20.50;55.00;;;;;;5093912;28;20170;-68
2022/05/23 02:28:58;;;;;;;1.00;1.00;;;20.50;55.00;;;;;;5091576;28;20187;-67
2022/05/23 02:31:24;;;;;;;1.10;1.10;;;20.50;55.00;;;;;;5094142;28;20185;-68
2022/05/23 02:33:50;;;;;;;1.67;1.20;;;20.50;55.00;;;;;;5093425;28;20682;-67
2022/05/23 02:36:15;;;;;;;1.52;1.20;;;20.50;55.00;;;;;;5093202;28;20227;-67
2022/05/23 02:38:41;;;;;;;1.35;1.25;;;20.50;55.10;;;;;;5093647;28;20177;-68
2022/05/23 02:41:06;;;;;;;1.42;1.20;;;20.50;55.00;;;;;;5093505;28;20272;-68
2022/05/23 02:43:32;;;;;;;1.40;1.30;;;20.50;55.10;;;;;;5093135;28;20216;-68
2022/05/23 02:45:57;;;;;;;1.23;1.13;;;20.50;55.10;;;;;;5093631;28;20169;-68
2022/05/23 02:48:23;;;;;;;1.90;1.70;;;20.50;55.10;;;;;;5093704;28;20246;-68
2022/05/23 02:50:48;;;;;;;1.35;1.25;;;20.50;55.10;;;;;;5092636;28;20242;-68
2022/05/23 02:53:14;;;;;;;1.40;1.30;;;20.50;55.10;;;;;;5093579;28;20461;-68
2022/05/23 02:55:39;;;;;;;1.50;1.40;;;20.40;55.20;;;;;;5092951;28;20182;-68
2022/05/23 02:58:07;;;;;;;1.27;1.17;;;20.50;55.20;;;;;;5092833;28;20177;-68
2022/05/23 03:00:33;;;;;;;1.00;1.00;;;20.40;55.10;;;;;;5093323;28;20651;-68
2022/05/23 03:03:01;;;;;;;1.30;1.20;;;20.50;55.20;;;;;;5093034;28;20181;-68
2022/05/23 03:05:31;;;;;;;1.27;1.17;;;20.40;55.20;;;;;;5092649;28;20213;-67
2022/05/23 03:07:57;;;;;;;1.10;1.00;;;20.40;55.20;;;;;;5092756;28;20221;-68
2022/05/23 03:10:23;;;;;;;1.60;1.35;;;20.40;55.20;;;;;;5092303;28;21066;-68
2022/05/23 03:12:48;;;;;;;1.20;1.10;;;20.40;55.20;;;;;;5092832;28;20176;-68
2022/05/23 03:15:14;;;;;;;1.35;1.25;;;20.40;55.20;;;;;;5093153;28;20169;-68
2022/05/23 03:17:39;;;;;;;1.63;1.25;;;20.40;55.20;;;;;;5091940;28;20174;-68
2022/05/23 03:20:05;;;;;;;1.40;1.13;;;20.40;55.20;;;;;;5092855;28;20196;-68
2022/05/23 03:27:59;;;;;;;2.65;1.50;;;20.40;55.30;;;;;;5092669;28;20176;-68
2022/05/23 03:30:25;;;;;;;1.70;1.45;;;20.40;55.30;;;;;;5092572;28;20264;-67
2022/05/23 03:32:50;;;;;;;1.40;1.30;;;20.40;55.30;;;;;;5091728;28;20170;-68
2022/05/23 03:35:16;;;;;;;1.45;1.30;;;20.40;55.30;;;;;;5092615;28;20185;-67
2022/05/23 03:37:42;;;;;;;1.20;1.10;;;20.30;55.20;;;;;;5092237;28;20173;-68
2022/05/23 03:40:08;;;;;;;1.45;1.33;;;20.40;55.30;;;;;;5091896;28;20197;-68
2022/05/23 03:42:34;;;;;;;1.42;1.33;;;20.40;55.30;;;;;;5092466;28;20190;-68
2022/05/23 03:44:59;;;;;;;1.10;1.10;;;20.40;55.30;;;;;;5092290;28;20667;-68
2022/05/23 03:47:25;;;;;;;1.33;1.23;;;20.30;55.30;;;;;;5091652;28;20177;-67
2022/05/23 03:49:50;;;;;;;1.20;1.10;;;20.40;55.30;;;;;;5091957;28;20181;-68
2022/05/23 03:52:16;;;;;;;1.90;1.17;;;20.30;55.30;;;;;;5092485;28;20178;-68
2022/05/23 03:54:41;;;;;;;1.15;1.05;;;20.40;55.30;;;;;;5091683;28;20174;-67
2022/05/23 03:57:07;;;;;;;1.10;1.05;;;20.30;55.30;;;;;;5092210;28;20523;-68
2022/05/23 03:59:32;;;;;;;1.45;1.20;;;20.30;55.30;;;;;;5091605;28;20174;-68
2022/05/23 04:01:58;;;;;;;1.45;1.38;;;20.30;55.30;;;;;;5091597;28;20594;-68
2022/05/23 04:04:28;;;;;;;1.13;1.08;;;20.30;55.90;;;;;;5092027;28;20337;-68
2022/05/23 04:06:59;;;;;;;1.40;1.30;;;20.40;55.40;;;;;;5091348;28;20208;-67
2022/05/23 04:09:25;;;;;;;1.58;1.30;;;20.30;55.30;;;;;;5091469;28;20687;-68
2022/05/23 04:11:51;;;;;;;1.00;0.90;;;20.30;55.30;;;;;;5091705;28;20194;-68
2022/05/23 04:14:17;;;;;;;1.60;1.50;;;20.30;55.30;;;;;;5091148;28;20255;-69
2022/05/23 04:16:46;;;;;;;1.52;1.10;;;20.30;55.30;;;;;;5091525;28;20641;-68
2022/05/23 04:19:12;;;;;;;1.30;1.20;;;20.30;55.30;;;;;;5092061;28;20227;-68
2022/05/23 04:21:40;;;;;;;1.20;1.10;;;20.30;55.30;;;;;;5090747;28;20181;-68
2022/05/23 04:24:06;;;;;;;1.33;1.23;;;20.30;55.30;;;;;;5092120;28;20209;-68
2022/05/23 04:26:31;;;;;;;1.35;1.25;;;20.30;55.30;;;;;;5091806;28;20496;-68
2022/05/23 04:28:57;;;;;;;1.30;1.20;;;20.30;55.30;;;;;;5090758;28;20204;-67
2022/05/23 04:31:22;;;;;;;1.40;1.08;;;20.30;55.30;;;;;;5091664;28;20177;-68
2022/05/23 04:36:31;;;;;;;1.33;1.23;;;20.30;55.30;;;;;;5091083;28;20540;-67
2022/05/23 04:38:57;;;;;;;1.27;1.17;;;20.40;55.30;;;;;;5091460;28;20189;-67
2022/05/23 04:41:23;;;;;;;1.20;1.13;;;20.40;55.30;;;;;;5091844;28;20220;-67
2022/05/23 04:43:49;;;;;;;1.52;1.20;;;20.40;55.40;;;;;;5090605;28;20185;-67
2022/05/23 04:46:14;;;;;;;1.40;1.25;;;20.30;55.30;;;;;;5091701;28;20221;-67
2022/05/23 04:51:27;;;;;;;1.30;1.20;;;20.40;55.30;;;;;;5091592;28;20662;-69
2022/05/23 04:53:53;;;;;;;0.82;0.82;;;20.30;55.30;;;;;;5091313;28;20632;-68
2022/05/23 04:56:20;;;;;;;1.52;1.42;;;20.30;55.30;;;;;;5090754;28;20174;-68
2022/05/23 04:58:46;;;;;;;0.90;0.90;;;20.40;55.30;;;;;;5091349;28;20173;-68
2022/05/23 05:01:11;;;;;;;1.40;1.20;;;20.30;55.30;;;;;;5091479;28;20174;-68
2022/05/23 05:03:37;;;;;;;1.40;1.30;;;20.40;55.20;;;;;;5090134;28;20202;-68
2022/05/23 05:06:03;;;;;;;2.10;1.50;;;20.40;55.20;;;;;;5091543;28;20578;-68
2022/05/23 05:08:29;;;;;;;1.13;1.13;;;20.40;55.20;;;;;;5091272;28;20229;-68
2022/05/23 05:10:57;;;;;;;1.40;1.30;;;20.40;55.20;;;;;;5090362;28;20189;-68
2022/05/23 05:13:23;;;;;;;1.10;0.90;;;20.40;55.20;;;;;;5091537;28;20181;-68
2022/05/23 05:15:49;;;;;;;1.05;1.00;;;20.40;55.20;;;;;;5090798;28;20257;-68
2022/05/23 05:18:14;;;;;;;1.77;1.45;;;20.40;55.20;;;;;;5090778;28;20261;-68
2022/05/23 05:20:40;;;;;;;1.13;1.13;;;20.40;55.20;;;;;;5091984;28;20181;-68
2022/05/23 05:23:05;;;;;;;1.77;1.50;;;20.40;55.20;;;;;;5095292;28;20174;-68
2022/05/23 05:25:31;;;;;;;1.50;1.40;;;20.40;55.20;;;;;;5094477;28;20653;-68
2022/05/23 05:27:56;;;;;;;1.13;1.02;;;20.40;55.20;;;;;;5095191;28;20185;-68
2022/05/23 05:30:22;;;;;;;1.00;1.00;;;20.40;55.20;;;;;;5095446;28;20269;-67
2022/05/23 05:33:09;;;;;;;1.38;1.27;;;20.40;55.10;;;;;;5094459;28;20174;-67
2022/05/23 05:35:42;;;;;;;1.17;1.17;;;20.40;55.20;;;;;;5093860;28;20174;-67
2022/05/23 05:38:15;;;;;;;1.00;1.00;;;20.40;55.10;;;;;;5094359;28;20200;-68
2022/05/23 05:40:40;;;;;;;1.63;1.20;;;20.40;55.10;;;;;;5093643;28;20281;-68
2022/05/23 05:43:10;;;;;;;1.83;1.50;;;20.40;55.10;;;;;;5095097;28;20238;-68
2022/05/23 05:45:51;;;;;;;1.40;1.30;;;20.50;55.10;;;;;;5092733;28;20237;-68
2022/05/23 05:48:16;;;;;;;1.75;1.30;;;20.40;55.10;;;;;;5093650;28;20184;-68
2022/05/23 05:50:42;;;;;;;1.30;1.20;;;20.50;55.00;;;;;;5093116;28;20571;-68
2022/05/23 05:53:21;;;;;;;1.30;1.20;;;20.50;55.00;;;;;;5092808;28;20589;-68
2022/05/23 05:55:47;;;;;;;1.20;1.20;;;20.50;55.00;;;;;;5093098;28;20243;-68
2022/05/23 05:58:12;;;;;;;2.40;1.90;;;20.50;55.00;;;;;;5093282;28;20174;-68
2022/05/23 06:00:37;;;;;;;1.23;1.20;;;20.50;55.00;;;;;;5093694;28;20549;-68
2022/05/23 06:03:03;;;;;;;1.73;1.35;;;20.50;55.00;;;;;;5094361;28;20552;-68
2022/05/23 06:05:28;;;;;;;1.83;1.73;;;20.50;55.00;;;;;;5094378;28;20228;-68
2022/05/23 06:13:22;;;;;;;1.40;1.30;;;20.50;55.00;;;;;;5093568;28;20177;-68
2022/05/23 06:15:47;;;;;;;2.05;1.27;;;20.60;55.00;;;;;;5094292;28;20169;-70
2022/05/23 06:18:13;;;;;;;1.13;1.05;;;20.50;55.00;;;;;;5094037;28;20177;-68
2022/05/23 06:20:39;;;;;;;1.42;1.33;;;20.50;55.00;;;;;;5093091;28;20544;-69
2022/05/23 06:23:04;;;;;;;1.20;1.10;;;20.50;55.00;;;;;;5094451;28;20218;-68
2022/05/23 06:25:30;;;;;;;1.35;1.25;;;20.50;55.00;;;;;;5094023;28;20209;-68
2022/05/23 06:27:56;;;;;;;1.30;1.20;;;20.50;55.00;;;;;;5092958;28;20178;-68
2022/05/23 06:30:21;;;;;;;1.50;1.40;;;20.50;55.00;;;;;;5093946;28;20173;-68
2022/05/23 06:32:47;;;;;;;1.67;1.40;;;20.50;55.00;;;;;;5093123;28;20170;-67
2022/05/23 06:35:12;;;;;;;1.63;1.52;;;20.60;55.10;;;;;;5093319;28;20201;-70
2022/05/23 06:37:39;;;;;;;2.20;1.50;;;20.50;55.10;;;;;;5093725;28;20174;-70
2022/05/23 06:40:06;;;;;;;4.75;1.80;;;20.50;55.20;;;;;;5092651;28;20174;-71
2022/05/23 06:42:32;;;;;;;8.27;2.10;;;20.50;55.50;;;;;;5092824;28;20259;-70
2022/05/23 06:44:58;;;;;;;4.13;2.00;;;20.50;55.40;;;;;;5093486;28;20209;-70
2022/05/23 06:47:24;;;;;;;3.05;1.63;;;20.50;55.20;;;;;;5093873;28;20174;-69
2022/05/23 06:49:49;;;;;;;2.53;1.90;;;20.60;55.50;;;;;;5092433;28;20261;-68
2022/05/23 06:52:15;;;;;;;3.17;1.83;;;20.60;55.60;;;;;;5093450;28;20182;-67
2022/05/23 06:54:40;;;;;;;3.35;1.90;;;20.60;55.60;;;;;;5093190;28;20250;-68
2022/05/23 06:57:06;;;;;;;1.88;1.77;;;20.70;55.60;;;;;;5092473;28;20174;-68
2022/05/23 06:59:32;;;;;;;3.70;1.90;;;20.70;55.60;;;;;;5093097;28;20184;-71
2022/05/23 07:01:58;;;;;;;5.70;2.20;;;20.70;55.70;;;;;;5093125;28;20186;-71
2022/05/23 07:04:23;;;;;;;2.42;2.08;;;20.70;55.50;;;;;;5092447;28;20201;-71
2022/05/23 07:12:20;;;;;;;3.70;2.15;;;20.70;55.40;;;;;;5093177;28;20252;-71
2022/05/23 07:14:46;;;;;;;4.43;2.38;;;20.70;55.40;;;;;;5092742;28;20253;-70
2022/05/23 07:17:11;;;;;;;8.07;2.55;;;20.70;55.40;;;;;;5092370;28;20327;-70
2022/05/23 07:19:37;;;;;;;11.10;3.47;;;20.70;55.40;;;;;;5092471;28;20479;-69
2022/05/23 07:22:03;;;;;;;4.70;2.63;;;20.70;55.60;;;;;;5092717;28;20230;-71
2022/05/23 07:24:30;;;;;;;4.10;2.58;;;20.80;55.50;;;;;;5091899;28;20236;-68
2022/05/23 07:26:56;;;;;;;5.22;2.70;;;20.80;55.60;;;;;;5092278;28;20176;-68
2022/05/23 07:29:25;;;;;;;6.13;2.88;;;20.80;55.60;;;;;;5092913;28;20185;-68
2022/05/23 07:31:50;;;;;;;6.40;3.13;;;20.80;55.60;;;;;;5091685;28;20184;-68
2022/05/23 07:34:16;;;;;;;4.45;3.08;;;20.90;55.60;;;;;;5092855;28;20169;-68
2022/05/23 07:36:42;;;;;;;3.92;2.90;;;20.90;55.60;;;;;;5092177;28;20375;-69
2022/05/23 07:39:08;;;;;;;6.70;2.92;;;20.90;55.60;;;;;;5091935;28;20169;-69
2022/05/23 07:41:34;;;;;;;4.65;3.05;;;20.90;55.60;;;;;;5092657;28;20220;-69
2022/05/23 07:43:59;;;;;;;7.32;3.15;;;20.90;55.50;;;;;;5091724;28;20304;-69
2022/05/23 07:46:25;;;;;;;9.60;3.50;;;20.90;55.50;;;;;;5091529;28;20486;-68
2022/05/23 07:48:51;;;;;;;3.75;2.83;;;20.90;55.50;;;;;;5092097;28;20276;-67
2022/05/23 07:51:18;;;;;;;5.40;3.03;;;20.90;55.40;;;;;;5092152;28;20697;-67
2022/05/23 08:01:56;;;;;;;4.82;2.90;;;20.90;55.50;;;;;;5091845;28;20319;-68
2022/05/23 08:04:22;;;;;;;6.45;2.85;;;20.90;55.50;;;;;;5092068;28;20287;-67
2022/05/23 08:06:47;;;;;;;5.78;2.70;;;20.90;55.50;;;;;;5091073;28;20188;-67
2022/05/23 08:09:13;;;;;;;8.15;3.03;;;20.90;55.50;;;;;;5091970;28;20229;-68
2022/05/23 08:11:39;;;;;;;5.47;2.95;;;20.90;55.50;;;;;;5091825;28;20230;-69
2022/05/23 08:14:04;;;;;;;9.30;3.20;;;20.90;55.50;;;;;;5073064;28;20196;-70
2022/05/23 08:16:30;;;;;;;5.40;3.30;;;20.90;55.50;;;;;;5091661;28;20227;-69
2022/05/23 08:18:56;;;;;;;5.30;3.22;;;20.90;55.50;;;;;;5091489;28;20186;-70
2022/05/23 08:21:21;;;;;;;9.35;3.17;;;20.90;55.50;;;;;;5091095;28;20228;-69
2022/05/23 08:23:47;;;;;;;5.68;2.63;;;20.90;55.40;;;;;;5091286;28;20217;-69
2022/05/23 08:26:13;;;;;;;9.48;2.70;;;20.90;55.50;;;;;;5091642;28;20182;-68
2022/05/23 08:28:39;;;;;;;5.88;3.15;;;20.90;55.40;;;;;;5090571;28;20625;-68
2022/05/23 08:31:04;;;;;;;7.35;2.92;;;20.90;55.30;;;;;;5091300;28;20184;-68
2022/05/23 08:33:30;;;;;;;5.03;2.72;;;21.00;55.40;;;;;;5091657;28;20169;-67
2022/05/23 08:35:55;;;;;;;4.72;3.35;;;21.00;55.30;;;;;;5090480;28;20232;-68
2022/05/23 08:38:21;;;;;;;5.47;3.05;;;21.00;55.30;;;;;;5091412;28;20177;-68
2022/05/23 08:41:02;;;;;;;3.20;2.90;;;21.00;55.30;;;;;;5090497;28;20612;-68
2022/05/23 08:43:36;;;;;;;3.88;3.03;;;21.10;55.20;;;;;;5091112;28;20246;-68
2022/05/23 08:46:02;;;;;;;3.80;2.72;;;21.10;55.00;;;;;;5074084;28;20243;-68
2022/05/23 08:48:43;;;;;;;2.95;2.33;;;21.20;55.00;;;;;;5089304;28;20193;-67
2022/05/23 08:51:23;;;;;;;2.78;2.50;;;21.20;55.00;;;;;;5090129;28;20198;-68
2022/05/23 08:54:20;;;;;;;4.82;3.15;;;21.20;54.90;;;;;;5089521;28;20556;-68
2022/05/23 08:56:55;;;;;;;5.28;3.05;;;21.20;54.90;;;;;;5081719;28;20185;-68
2022/05/23 08:59:27;;;;;;;4.45;2.60;;;21.30;54.90;;;;;;5089891;28;20627;-69
2022/05/23 09:02:01;;;;;;;4.43;2.90;;;21.30;54.90;;;;;;5090046;28;20173;-69
2022/05/23 09:04:48;;;;;;;4.00;2.55;;;21.20;54.90;;;;;;5073879;28;20233;-68
2022/05/23 09:07:33;;;;;;;5.20;2.45;;;21.20;55.00;;;;;;5089960;28;20174;-68
2022/05/23 09:10:01;;;;;;;5.07;2.78;;;21.20;55.00;;;;;;5072717;28;20280;-69
2022/05/23 09:12:27;;;;;;;6.85;2.92;;;21.20;55.00;;;;;;5089560;28;20184;-69
2022/05/23 09:14:52;;;;;;;4.65;2.70;;;21.20;55.00;;;;;;5090665;28;20174;-70
2022/05/23 09:17:26;;;;;;;5.22;2.85;;;21.20;55.00;;;;;;5090341;28;20162;-69
2022/05/23 09:20:03;;;;;;;6.53;2.65;;;21.20;55.00;;;;;;5073410;28;20180;-69
2022/05/23 09:22:48;;;;;;;4.38;2.53;;;21.20;55.00;;;;;;5091037;28;20253;-69
2022/05/23 09:25:16;;;;;;;2.83;2.50;;;21.20;55.00;;;;;;5089920;28;20262;-69
2022/05/23 09:28:16;;;;;;;4.35;2.60;;;21.20;55.00;;;;;;5090749;28;20182;-68
2022/05/23 09:30:43;;;;;;;2.70;2.50;;;21.30;55.10;;;;;;5055236;28;20236;-68
2022/05/23 09:33:19;;;;;;;3.72;2.33;;;21.20;55.00;;;;;;5089411;28;20177;-68
2022/05/23 09:35:44;;;;;;;3.38;2.58;;;21.20;55.00;;;;;;5072641;28;20185;-68
2022/05/23 09:38:17;;;;;;;4.38;2.72;;;21.20;55.00;;;;;;5090204;28;20498;-69
2022/05/23 09:40:43;;;;;;;4.95;2.42;;;21.30;55.00;;;;;;5090671;28;20200;-69
2022/05/23 09:49:08;;;;;;;3.15;2.50;;;21.40;54.80;;;;;;5090430;28;20223;-67
2022/05/23 09:51:57;;;;;;;4.63;2.33;;;21.40;54.80;;;;;;5090089;28;20173;-68
2022/05/23 09:54:28;;;;;;;3.00;2.70;;;21.30;54.80;;;;;;5090516;28;20440;-68
2022/05/23 09:56:54;;;;;;;3.17;2.88;;;21.40;54.90;;;;;;5090492;28;20206;-68
2022/05/23 09:59:25;;;;;;;5.30;2.50;;;21.40;54.80;;;;;;5088473;28;20205;-68
2022/05/23 10:01:52;;;;;;;3.58;2.80;;;21.40;54.80;;;;;;5090316;28;20198;-68
2022/05/23 10:04:23;;;;;;;2.90;2.40;;;21.40;54.70;;;;;;5089017;28;20672;-68
2022/05/23 10:06:51;;;;;;;2.50;2.30;;;21.40;54.70;;;;;;5089397;28;20551;-68
2022/05/23 10:09:28;;;;;;;3.83;2.58;;;21.40;54.70;;;;;;5094133;28;20271;-68
2022/05/23 10:11:56;;;;;;;3.38;2.35;;;21.40;54.70;;;;;;5093937;28;20201;-69
2022/05/23 10:14:23;;;;;;;4.15;2.63;;;21.50;54.70;;;;;;5093513;28;20180;-69
2022/05/23 10:16:54;;;;;;;3.90;2.50;;;21.40;54.80;;;;;;5093645;28;20189;-69
2022/05/23 10:19:33;;;;;;;4.90;2.63;;;21.40;54.80;;;;;;5093132;28;20186;-70
2022/05/23 10:22:20;;;;;;;3.35;2.50;;;21.40;54.90;;;;;;5093412;28;20177;-67
2022/05/23 10:24:56;;;;;;;4.55;2.60;;;21.40;55.00;;;;;;5093348;28;20198;-65
2022/05/23 10:27:48;;;;;;;5.40;2.92;;;21.40;55.10;;;;;;5075697;28;20230;-69
2022/05/23 10:30:15;;;;;;;4.50;3.10;;;21.40;55.40;;;;;;5076993;28;20174;-68
2022/05/23 10:32:46;;;;;;;5.88;3.10;;;21.40;55.10;;;;;;5071976;28;20179;-69
2022/05/23 10:35:26;;;;;;;5.00;2.60;;;21.40;55.20;;;;;;5072026;28;20204;-69
2022/05/23 10:37:52;;;;;;;4.05;2.35;;;21.40;55.20;;;;;;5078923;28;20260;-70
2022/05/23 10:43:37;;;;;;;4.53;2.53;;;21.30;55.10;;;;;;5093557;28;20561;-70
2022/05/23 10:46:03;;;;;;;3.63;2.42;;;21.30;55.10;;;;;;5050131;28;20637;-71
2022/05/23 10:48:59;;;;;;;4.70;2.95;;;21.30;55.10;;;;;;5090963;28;20213;-69
2022/05/23 10:51:44;;;;;;;4.93;2.58;;;21.40;55.10;;;;;;5092581;28;20254;-69
2022/05/23 10:54:34;;;;;;;3.30;2.50;;;21.40;55.00;;;;;;5093463;28;20176;-69
2022/05/23 10:57:11;;;;;;;5.43;2.45;;;21.40;55.00;;;;;;5093622;28;20260;-71
2022/05/23 10:59:53;;;;;;;4.40;2.50;;;21.40;55.10;;;;;;5093111;28;20182;-71
2022/05/23 11:02:25;;;;;;;3.45;2.47;;;21.40;55.10;;;;;;5092727;28;20174;-70
2022/05/23 11:05:08;;;;;;;4.28;2.58;;;21.40;55.20;;;;;;5091251;28;20562;-70
2022/05/23 11:07:45;;;;;;;2.78;2.50;;;21.40;55.20;;;;;;5091902;28;20178;-70
2022/05/23 11:10:22;;;;;;;2.97;2.30;;;21.40;55.20;;;;;;5091432;28;20192;-70
2022/05/23 11:13:13;;;;;;;2.97;2.40;;;21.30;55.10;;;;;;5093016;28;20187;-71
2022/05/23 11:15:53;;;;;;;5.18;2.40;;;21.40;55.20;;;;;;5084771;28;20311;-72
2022/05/23 11:18:33;;;;;;;3.65;2.80;;;21.30;55.20;;;;;;5089529;28;20194;-71
2022/05/23 11:21:03;;;;;;;4.70;2.78;;;21.30;55.20;;;;;;5092471;28;20221;-71
2022/05/23 11:23:46;;;;;;;2.67;2.47;;;21.30;55.20;;;;;;5091418;28;20170;-70
2022/05/23 11:26:24;;;;;;;3.22;2.35;;;21.40;55.10;;;;;;5090780;28;20217;-70
2022/05/23 11:34:57;;;;;;;5.32;3.00;;;21.50;54.90;;;;;;5092516;28;20655;-70
2022/05/23 11:39:57;;;;;;;7.18;3.20;;;21.70;54.80;;;;;;5092190;28;20182;-69
2022/05/23 11:42:27;;;;;;;5.85;3.20;;;21.70;54.80;;;;;;5092595;28;20173;-68
2022/05/23 11:45:56;;;;;;;7.97;4.03;;;21.80;54.70;;;;;;5090158;28;20289;-68
2022/05/23 11:47:51;;;;;;;9.50;3.78;;;21.90;54.50;;;;;;5092081;28;20182;-68
2022/05/23 11:50:19;;;;;;;5.47;2.90;;;22.00;54.50;;;;;;5092445;28;20264;-68
2022/05/23 11:53:03;;;;;;;4.97;3.20;;;21.90;54.50;;;;;;5089977;28;20253;-68
2022/05/23 11:55:51;;;;;;;8.27;3.78;;;22.00;54.60;;;;;;5091258;28;20332;-68
2022/05/23 11:58:38;;;;;;;7.60;3.65;;;22.10;54.40;;;;;;5091927;28;20174;-68
2022/05/23 12:01:13;;;;;;;6.70;3.33;;;22.10;54.40;;;;;;5079237;28;20178;-71
2022/05/23 12:04:06;;;;;;;6.00;3.30;;;22.20;54.40;;;;;;5092079;28;20287;-72
2022/05/23 12:06:32;;;;;;;12.05;3.55;;;22.20;54.50;;;;;;5060586;28;20206;-70
2022/05/23 12:08:57;;;;;;;11.70;3.83;;;22.20;54.50;;;;;;5091660;28;20222;-70
2022/05/23 12:11:31;;;;;;;13.23;3.60;;;22.20;54.50;;;;;;5092122;28;20628;-71
2022/05/23 12:14:00;;;;;;;13.18;4.10;;;22.20;55.20;;;;;;5091141;28;20185;-72
2022/05/23 12:16:31;;;;;;;7.78;3.45;;;22.20;54.50;;;;;;5090743;28;20209;-71
2022/05/23 12:19:28;;;;;;;6.55;3.17;;;22.30;54.40;;;;;;5091112;28;20256;-72
2022/05/23 12:22:14;;;;;;;5.43;3.22;;;22.30;54.90;;;;;;5091934;28;20205;-72
2022/05/23 12:24:55;;;;;;;5.55;2.88;;;22.30;54.20;;;;;;5076687;28;20603;-72
2022/05/23 12:27:28;;;;;;;5.50;3.50;;;22.40;54.20;;;;;;5089966;28;20185;-70
2022/05/23 12:30:15;;;;;;;5.25;2.97;;;22.40;54.10;;;;;;5091215;28;20174;-70
2022/05/23 12:32:41;;;;;;;7.45;3.15;;;22.30;54.20;;;;;;5091395;28;20654;-70
2022/05/23 12:35:07;;;;;;;6.53;3.38;;;22.30;54.30;;;;;;5091148;28;20174;-71
2022/05/23 12:37:35;;;;;;;9.18;3.50;;;22.30;54.30;;;;;;5091866;28;20166;-71
2022/05/23 12:40:05;;;;;;;9.02;3.35;;;22.30;54.30;;;;;;5089682;28;20189;-72
2022/05/23 12:42:54;;;;;;;10.07;3.05;;;22.40;54.40;;;;;;5090570;28;20170;-71
2022/05/23 12:45:35;;;;;;;9.00;3.53;;;22.40;54.30;;;;;;5063034;28;20313;-70
2022/05/23 12:48:18;;;;;;;5.85;2.85;;;22.40;54.20;;;;;;5089602;28;20177;-73
2022/05/23 12:50:43;;;;;;;7.18;3.08;;;22.50;54.10;;;;;;5091450;28;20178;-72
2022/05/23 12:53:41;;;;;;;5.93;2.67;;;22.50;54.10;;;;;;5091374;28;20228;-70
2022/05/23 12:56:17;;;;;;;7.38;2.75;;;22.50;54.20;;;;;;5059002;28;20182;-71
2022/05/23 12:58:42;;;;;;;4.97;2.90;;;22.40;54.40;;;;;;5090201;28;20174;-72
2022/05/23 13:01:09;;;;;;;5.00;2.80;;;22.30;54.40;;;;;;5090767;28;20581;-73
2022/05/23 13:04:03;;;;;;;5.70;2.30;;;22.30;54.50;;;;;;5073022;28;20228;-71
2022/05/23 13:06:46;;;;;;;5.25;2.70;;;22.30;54.50;;;;;;5091284;28;20629;-72
2022/05/23 13:09:16;;;;;;;4.47;2.72;;;22.30;54.60;;;;;;5089273;28;20225;-71
2022/05/23 13:11:48;;;;;;;7.63;3.30;;;22.30;54.70;;;;;;5089640;28;20597;-70
2022/05/23 13:14:14;;;;;;;6.10;2.67;;;22.20;54.80;;;;;;5089667;28;20173;-72
2022/05/23 13:16:39;;;;;;;4.93;3.38;;;22.10;54.90;;;;;;5088404;28;20173;-72
2022/05/23 13:22:12;;;;;;;7.15;2.78;;;22.00;55.00;;;;;;5090494;28;20239;-72
2022/05/23 13:24:55;;;;;;;8.07;3.10;;;22.00;55.00;;;;;;5089388;28;20197;-73
2022/05/23 13:27:24;;;;;;;5.82;3.03;;;21.90;55.00;;;;;;5085265;28;20182;-71
2022/05/23 13:29:54;;;;;;;7.22;3.15;;;21.90;55.10;;;;;;5088633;28;20182;-72
2022/05/23 13:32:20;;;;;;;8.30;2.85;;;21.90;55.10;;;;;;5089954;28;20193;-71
2022/05/23 13:34:46;;;;;;;3.50;2.50;;;21.90;55.30;;;;;;5090781;28;20162;-70
2022/05/23 13:37:23;;;;;;;4.07;2.45;;;21.80;55.20;;;;;;5090524;28;20197;-72
2022/05/23 13:39:50;;;;;;;3.55;2.58;;;21.80;55.20;;;;;;5073013;28;20166;-73
2022/05/23 13:42:20;;;;;;;6.25;2.72;;;21.80;55.90;;;;;;5092872;28;20256;-72
2022/05/23 13:44:45;;;;;;;5.40;2.83;;;21.80;55.30;;;;;;5093875;28;20247;-71
2022/05/23 13:47:13;;;;;;;3.05;2.15;;;21.80;55.40;;;;;;5094976;28;20198;-71
2022/05/23 13:49:40;;;;;;;6.95;2.63;;;21.70;55.30;;;;;;5076871;28;20178;-70
2022/05/23 13:52:08;;;;;;;4.65;2.90;;;21.70;55.30;;;;;;5094395;28;20170;-72
2022/05/23 13:54:42;;;;;;;5.57;3.00;;;21.70;55.30;;;;;;5093369;28;20589;-70
2022/05/23 13:57:26;;;;;;;4.35;2.45;;;21.70;55.30;;;;;;5093537;28;20197;-72